sensor_id;sensor_type;location;lat;lon;timestamp;P1;durP1;ratioP1;P2;durP2;ratioP2
75760;SDS011;64373;46.136;8.830;2023-02-28T00:00:44;5.82;;;3.30;;
75760;SDS011;64373;46.136;8.830;2023-02-28T00:03:09;4.15;;;2.58;;
75760;SDS011;64373;46.136;8.830;2023-02-28T00:05:35;3.58;;;2.13;;
75760;SDS011;64373;46.136;8.830;2023-02-28T00:08:01;3.75;;;2.20;;
75760;SDS011;64373;46.136;8.830;2023-02-28T00:10:28;3.95;;;2.45;;
75760;SDS011;64373;46.136;8.830;2023-02-28T00:12:55;3.63;;;2.08;;
75760;SDS011;64373;46.136;8.830;2023-02-28T00:15:24;6.07;;;3.85;;
75760;SDS011;64373;46.136;8.830;2023-02-28T00:17:49;4.90;;;2.75;;
75760;SDS011;64373;46.136;8.830;2023-02-28T00:20:15;3.05;;;2.10;;
75760;SDS011;64373;46.136;8.830;2023-02-28T00:22:42;4.45;;;2.22;;
75760;SDS011;64373;46.136;8.830;2023-02-28T00:25:10;2.80;;;1.80;;
75760;SDS011;64373;46.136;8.830;2023-02-28T00:27:37;2.15;;;1.45;;
75760;SDS011;64373;46.136;8.830;2023-02-28T00:30:04;2.72;;;2.05;;
75760;SDS011;64373;46.136;8.830;2023-02-28T00:32:31;2.70;;;1.70;;
75760;SDS011;64373;46.136;8.830;2023-02-28T00:34:56;2.50;;;1.45;;
75760;SDS011;64373;46.136;8.830;2023-02-28T00:37:22;1.92;;;1.40;;
75760;SDS011;64373;46.136;8.830;2023-02-28T00:39:48;5.35;;;2.88;;
75760;SDS011;64373;46.136;8.830;2023-02-28T00:42:13;2.78;;;1.67;;
75760;SDS011;64373;46.136;8.830;2023-02-28T00:44:39;2.42;;;1.70;;
75760;SDS011;64373;46.136;8.830;2023-02-28T00:47:04;4.43;;;1.98;;
75760;SDS011;64373;46.136;8.830;2023-02-28T00:49:30;2.83;;;1.73;;
75760;SDS011;64373;46.136;8.830;2023-02-28T00:51:55;3.28;;;2.20;;
75760;SDS011;64373;46.136;8.830;2023-02-28T00:54:21;8.07;;;4.25;;
75760;SDS011;64373;46.136;8.830;2023-02-28T00:56:48;5.05;;;3.28;;
75760;SDS011;64373;46.136;8.830;2023-02-28T00:59:14;3.95;;;2.40;;
75760;SDS011;64373;46.136;8.830;2023-02-28T01:01:41;3.28;;;2.30;;
75760;SDS011;64373;46.136;8.830;2023-02-28T01:04:07;2.28;;;1.73;;
75760;SDS011;64373;46.136;8.830;2023-02-28T01:06:32;3.28;;;2.00;;
75760;SDS011;64373;46.136;8.830;2023-02-28T01:08:58;2.50;;;1.58;;
75760;SDS011;64373;46.136;8.830;2023-02-28T01:11:24;4.00;;;2.42;;
75760;SDS011;64373;46.136;8.830;2023-02-28T01:13:51;2.45;;;1.42;;
75760;SDS011;64373;46.136;8.830;2023-02-28T01:16:17;3.03;;;2.17;;
75760;SDS011;64373;46.136;8.830;2023-02-28T01:18:42;5.82;;;3.75;;
75760;SDS011;64373;46.136;8.830;2023-02-28T01:21:10;5.50;;;3.30;;
75760;SDS011;64373;46.136;8.830;2023-02-28T01:23:37;3.35;;;2.10;;
75760;SDS011;64373;46.136;8.830;2023-02-28T01:26:22;6.18;;;3.92;;
75760;SDS011;64373;46.136;8.830;2023-02-28T01:28:48;6.38;;;4.25;;
75760;SDS011;64373;46.136;8.830;2023-02-28T01:31:15;6.85;;;4.57;;
75760;SDS011;64373;46.136;8.830;2023-02-28T01:33:40;7.97;;;4.60;;
75760;SDS011;64373;46.136;8.830;2023-02-28T01:36:10;5.95;;;3.88;;
75760;SDS011;64373;46.136;8.830;2023-02-28T01:38:37;4.28;;;2.70;;
75760;SDS011;64373;46.136;8.830;2023-02-28T01:41:03;5.85;;;3.85;;
75760;SDS011;64373;46.136;8.830;2023-02-28T01:43:30;7.22;;;4.25;;
75760;SDS011;64373;46.136;8.830;2023-02-28T01:45:58;6.43;;;3.95;;
75760;SDS011;64373;46.136;8.830;2023-02-28T01:48:25;6.40;;;3.53;;
75760;SDS011;64373;46.136;8.830;2023-02-28T01:50:56;4.50;;;2.78;;
75760;SDS011;64373;46.136;8.830;2023-02-28T01:53:30;8.90;;;4.70;;
75760;SDS011;64373;46.136;8.830;2023-02-28T01:55:57;5.55;;;3.25;;
75760;SDS011;64373;46.136;8.830;2023-02-28T01:58:23;3.67;;;2.40;;
75760;SDS011;64373;46.136;8.830;2023-02-28T02:00:49;3.85;;;2.25;;
75760;SDS011;64373;46.136;8.830;2023-02-28T02:03:15;3.30;;;1.92;;
75760;SDS011;64373;46.136;8.830;2023-02-28T02:05:44;2.95;;;2.03;;
75760;SDS011;64373;46.136;8.830;2023-02-28T02:08:19;5.18;;;3.47;;
75760;SDS011;64373;46.136;8.830;2023-02-28T02:10:55;5.45;;;3.40;;
75760;SDS011;64373;46.136;8.830;2023-02-28T02:27:30;3.88;;;2.13;;
75760;SDS011;64373;46.136;8.830;2023-02-28T02:43:53;6.57;;;4.25;;
75760;SDS011;64373;46.136;8.830;2023-02-28T02:46:41;8.60;;;5.03;;
75760;SDS011;64373;46.136;8.830;2023-02-28T02:49:10;8.23;;;4.85;;
75760;SDS011;64373;46.136;8.830;2023-02-28T02:51:39;7.22;;;4.43;;
75760;SDS011;64373;46.136;8.830;2023-02-28T02:54:10;6.13;;;3.42;;
75760;SDS011;64373;46.136;8.830;2023-02-28T02:56:58;4.60;;;2.72;;
75760;SDS011;64373;46.136;8.830;2023-02-28T02:59:26;4.07;;;2.40;;
75760;SDS011;64373;46.136;8.830;2023-02-28T03:01:54;3.20;;;2.22;;
75760;SDS011;64373;46.136;8.830;2023-02-28T03:04:23;3.45;;;2.00;;
75760;SDS011;64373;46.136;8.830;2023-02-28T03:06:50;4.30;;;2.38;;
75760;SDS011;64373;46.136;8.830;2023-02-28T03:09:22;4.68;;;3.20;;
75760;SDS011;64373;46.136;8.830;2023-02-28T03:11:49;4.88;;;2.90;;
75760;SDS011;64373;46.136;8.830;2023-02-28T03:17:06;3.28;;;1.90;;
75760;SDS011;64373;46.136;8.830;2023-02-28T03:20:04;5.00;;;2.97;;
75760;SDS011;64373;46.136;8.830;2023-02-28T03:25:59;4.30;;;2.42;;
75760;SDS011;64373;46.136;8.830;2023-02-28T03:31:58;6.60;;;4.10;;
75760;SDS011;64373;46.136;8.830;2023-02-28T04:04:39;3.97;;;2.40;;
75760;SDS011;64373;46.136;8.830;2023-02-28T04:09:36;4.82;;;2.63;;
75760;SDS011;64373;46.136;8.830;2023-02-28T04:12:01;4.68;;;2.95;;
75760;SDS011;64373;46.136;8.830;2023-02-28T04:14:27;4.72;;;2.70;;
75760;SDS011;64373;46.136;8.830;2023-02-28T04:16:52;3.65;;;2.63;;
75760;SDS011;64373;46.136;8.830;2023-02-28T04:19:18;5.07;;;2.75;;
75760;SDS011;64373;46.136;8.830;2023-02-28T04:21:45;4.70;;;2.70;;
75760;SDS011;64373;46.136;8.830;2023-02-28T04:24:17;7.28;;;4.07;;
75760;SDS011;64373;46.136;8.830;2023-02-28T04:26:45;4.53;;;2.90;;
75760;SDS011;64373;46.136;8.830;2023-02-28T04:29:12;5.05;;;2.97;;
75760;SDS011;64373;46.136;8.830;2023-02-28T04:31:39;4.88;;;2.90;;
75760;SDS011;64373;46.136;8.830;2023-02-28T04:34:05;5.03;;;2.40;;
75760;SDS011;64373;46.136;8.830;2023-02-28T04:36:31;6.40;;;3.88;;
75760;SDS011;64373;46.136;8.830;2023-02-28T04:38:56;4.85;;;2.60;;
75760;SDS011;64373;46.136;8.830;2023-02-28T04:41:22;4.32;;;2.55;;
75760;SDS011;64373;46.136;8.830;2023-02-28T04:43:48;3.95;;;2.10;;
75760;SDS011;64373;46.136;8.830;2023-02-28T04:46:13;3.90;;;2.28;;
75760;SDS011;64373;46.136;8.830;2023-02-28T04:48:40;3.60;;;2.22;;
75760;SDS011;64373;46.136;8.830;2023-02-28T04:51:07;3.15;;;1.90;;
75760;SDS011;64373;46.136;8.830;2023-02-28T04:53:35;3.28;;;2.00;;
75760;SDS011;64373;46.136;8.830;2023-02-28T04:56:02;3.42;;;1.77;;
75760;SDS011;64373;46.136;8.830;2023-02-28T04:58:28;3.72;;;2.50;;
75760;SDS011;64373;46.136;8.830;2023-02-28T05:00:57;4.80;;;3.10;;
75760;SDS011;64373;46.136;8.830;2023-02-28T05:03:29;2.40;;;1.65;;
75760;SDS011;64373;46.136;8.830;2023-02-28T05:05:55;3.30;;;1.90;;
75760;SDS011;64373;46.136;8.830;2023-02-28T05:08:21;7.05;;;4.68;;
75760;SDS011;64373;46.136;8.830;2023-02-28T05:10:46;8.43;;;4.75;;
75760;SDS011;64373;46.136;8.830;2023-02-28T05:13:12;3.95;;;2.63;;
75760;SDS011;64373;46.136;8.830;2023-02-28T05:15:37;3.70;;;2.15;;
75760;SDS011;64373;46.136;8.830;2023-02-28T05:18:03;3.40;;;2.20;;
75760;SDS011;64373;46.136;8.830;2023-02-28T05:20:29;3.88;;;1.85;;
75760;SDS011;64373;46.136;8.830;2023-02-28T05:22:54;3.92;;;2.08;;
75760;SDS011;64373;46.136;8.830;2023-02-28T05:25:20;2.05;;;1.40;;
75760;SDS011;64373;46.136;8.830;2023-02-28T05:27:49;2.95;;;1.90;;
75760;SDS011;64373;46.136;8.830;2023-02-28T05:30:14;2.85;;;1.77;;
75760;SDS011;64373;46.136;8.830;2023-02-28T05:32:40;2.40;;;1.50;;
75760;SDS011;64373;46.136;8.830;2023-02-28T05:35:11;3.55;;;2.10;;
75760;SDS011;64373;46.136;8.830;2023-02-28T05:37:37;3.70;;;2.10;;
75760;SDS011;64373;46.136;8.830;2023-02-28T05:40:06;5.40;;;3.13;;
75760;SDS011;64373;46.136;8.830;2023-02-28T05:42:35;4.28;;;2.97;;
75760;SDS011;64373;46.136;8.830;2023-02-28T05:45:01;6.20;;;3.95;;
75760;SDS011;64373;46.136;8.830;2023-02-28T05:47:27;6.00;;;3.38;;
75760;SDS011;64373;46.136;8.830;2023-02-28T05:49:52;4.97;;;3.17;;
75760;SDS011;64373;46.136;8.830;2023-02-28T05:52:18;5.47;;;3.25;;
75760;SDS011;64373;46.136;8.830;2023-02-28T05:54:43;6.88;;;3.55;;
75760;SDS011;64373;46.136;8.830;2023-02-28T05:57:09;5.32;;;3.33;;
75760;SDS011;64373;46.136;8.830;2023-02-28T05:59:34;5.85;;;3.28;;
75760;SDS011;64373;46.136;8.830;2023-02-28T06:02:04;4.43;;;2.55;;
75760;SDS011;64373;46.136;8.830;2023-02-28T06:04:30;4.03;;;2.30;;
75760;SDS011;64373;46.136;8.830;2023-02-28T06:06:55;3.67;;;2.17;;
75760;SDS011;64373;46.136;8.830;2023-02-28T06:09:22;7.10;;;4.35;;
75760;SDS011;64373;46.136;8.830;2023-02-28T06:11:48;5.50;;;2.85;;
75760;SDS011;64373;46.136;8.830;2023-02-28T06:14:14;3.90;;;2.72;;
75760;SDS011;64373;46.136;8.830;2023-02-28T06:16:41;2.75;;;1.83;;
75760;SDS011;64373;46.136;8.830;2023-02-28T06:19:08;3.25;;;2.10;;
75760;SDS011;64373;46.136;8.830;2023-02-28T06:21:34;3.47;;;2.20;;
75760;SDS011;64373;46.136;8.830;2023-02-28T06:24:00;2.47;;;1.65;;
75760;SDS011;64373;46.136;8.830;2023-02-28T06:26:26;3.70;;;2.40;;
75760;SDS011;64373;46.136;8.830;2023-02-28T06:28:51;4.22;;;2.55;;
75760;SDS011;64373;46.136;8.830;2023-02-28T06:31:17;2.80;;;1.85;;
75760;SDS011;64373;46.136;8.830;2023-02-28T06:33:44;4.07;;;2.50;;
75760;SDS011;64373;46.136;8.830;2023-02-28T06:36:10;3.63;;;2.30;;
75760;SDS011;64373;46.136;8.830;2023-02-28T06:38:38;4.82;;;2.28;;
75760;SDS011;64373;46.136;8.830;2023-02-28T06:41:04;6.78;;;3.30;;
75760;SDS011;64373;46.136;8.830;2023-02-28T06:43:32;7.00;;;3.78;;
75760;SDS011;64373;46.136;8.830;2023-02-28T06:46:00;4.15;;;2.60;;
75760;SDS011;64373;46.136;8.830;2023-02-28T06:48:27;5.05;;;3.28;;
75760;SDS011;64373;46.136;8.830;2023-02-28T06:51:03;5.45;;;3.40;;
75760;SDS011;64373;46.136;8.830;2023-02-28T06:53:29;6.13;;;3.35;;
75760;SDS011;64373;46.136;8.830;2023-02-28T06:55:55;5.75;;;3.10;;
75760;SDS011;64373;46.136;8.830;2023-02-28T06:58:20;3.17;;;2.15;;
75760;SDS011;64373;46.136;8.830;2023-02-28T07:00:50;6.13;;;3.58;;
75760;SDS011;64373;46.136;8.830;2023-02-28T07:03:18;8.63;;;4.68;;
75760;SDS011;64373;46.136;8.830;2023-02-28T07:05:44;8.88;;;5.55;;
75760;SDS011;64373;46.136;8.830;2023-02-28T07:08:10;6.05;;;3.47;;
75760;SDS011;64373;46.136;8.830;2023-02-28T07:10:39;4.93;;;2.85;;
75760;SDS011;64373;46.136;8.830;2023-02-28T07:13:05;4.38;;;2.47;;
75760;SDS011;64373;46.136;8.830;2023-02-28T07:15:31;3.95;;;2.25;;
75760;SDS011;64373;46.136;8.830;2023-02-28T07:17:57;3.25;;;1.90;;
75760;SDS011;64373;46.136;8.830;2023-02-28T07:20:23;3.70;;;2.63;;
75760;SDS011;64373;46.136;8.830;2023-02-28T07:22:49;8.35;;;4.53;;
75760;SDS011;64373;46.136;8.830;2023-02-28T07:25:24;8.30;;;4.30;;
75760;SDS011;64373;46.136;8.830;2023-02-28T07:27:51;6.82;;;4.10;;
75760;SDS011;64373;46.136;8.830;2023-02-28T07:30:17;6.38;;;3.80;;
75760;SDS011;64373;46.136;8.830;2023-02-28T07:32:43;5.47;;;3.50;;
75760;SDS011;64373;46.136;8.830;2023-02-28T07:35:09;4.70;;;2.90;;
75760;SDS011;64373;46.136;8.830;2023-02-28T07:37:34;4.28;;;2.60;;
75760;SDS011;64373;46.136;8.830;2023-02-28T07:40:04;4.13;;;2.55;;
75760;SDS011;64373;46.136;8.830;2023-02-28T07:42:34;4.38;;;2.58;;
75760;SDS011;64373;46.136;8.830;2023-02-28T07:45:00;4.15;;;2.50;;
75760;SDS011;64373;46.136;8.830;2023-02-28T07:47:26;4.43;;;2.17;;
75760;SDS011;64373;46.136;8.830;2023-02-28T07:49:52;4.38;;;2.15;;
75760;SDS011;64373;46.136;8.830;2023-02-28T07:52:17;5.18;;;3.33;;
75760;SDS011;64373;46.136;8.830;2023-02-28T07:54:43;5.07;;;3.10;;
75760;SDS011;64373;46.136;8.830;2023-02-28T07:57:08;3.40;;;2.00;;
75760;SDS011;64373;46.136;8.830;2023-02-28T07:59:34;10.45;;;6.07;;
75760;SDS011;64373;46.136;8.830;2023-02-28T08:01:59;6.03;;;3.80;;
75760;SDS011;64373;46.136;8.830;2023-02-28T08:04:25;4.53;;;2.72;;
75760;SDS011;64373;46.136;8.830;2023-02-28T08:06:51;4.18;;;2.42;;
75760;SDS011;64373;46.136;8.830;2023-02-28T08:09:21;4.95;;;2.70;;
75760;SDS011;64373;46.136;8.830;2023-02-28T08:11:47;6.30;;;3.88;;
75760;SDS011;64373;46.136;8.830;2023-02-28T08:14:12;8.52;;;5.22;;
75760;SDS011;64373;46.136;8.830;2023-02-28T08:16:38;9.18;;;5.00;;
75760;SDS011;64373;46.136;8.830;2023-02-28T08:19:04;7.72;;;4.93;;
75760;SDS011;64373;46.136;8.830;2023-02-28T08:21:29;6.97;;;3.65;;
75760;SDS011;64373;46.136;8.830;2023-02-28T08:23:55;7.03;;;4.03;;
75760;SDS011;64373;46.136;8.830;2023-02-28T08:26:21;10.05;;;4.90;;
75760;SDS011;64373;46.136;8.830;2023-02-28T08:28:47;7.93;;;4.68;;
75760;SDS011;64373;46.136;8.830;2023-02-28T08:31:13;10.43;;;4.90;;
75760;SDS011;64373;46.136;8.830;2023-02-28T08:33:40;7.50;;;4.50;;
75760;SDS011;64373;46.136;8.830;2023-02-28T08:36:06;6.70;;;4.13;;
75760;SDS011;64373;46.136;8.830;2023-02-28T08:38:33;9.70;;;5.20;;
75760;SDS011;64373;46.136;8.830;2023-02-28T08:41:00;8.98;;;5.15;;
75760;SDS011;64373;46.136;8.830;2023-02-28T08:43:27;6.85;;;4.00;;
75760;SDS011;64373;46.136;8.830;2023-02-28T08:45:54;11.75;;;6.53;;
75760;SDS011;64373;46.136;8.830;2023-02-28T08:48:22;11.23;;;6.13;;
75760;SDS011;64373;46.136;8.830;2023-02-28T08:50:55;12.48;;;6.40;;
75760;SDS011;64373;46.136;8.830;2023-02-28T08:53:21;7.30;;;4.10;;
75760;SDS011;64373;46.136;8.830;2023-02-28T08:55:47;5.65;;;3.30;;
75760;SDS011;64373;46.136;8.830;2023-02-28T08:58:12;8.43;;;4.75;;
75760;SDS011;64373;46.136;8.830;2023-02-28T09:00:38;7.40;;;4.25;;
75760;SDS011;64373;46.136;8.830;2023-02-28T09:03:03;7.55;;;4.40;;
75760;SDS011;64373;46.136;8.830;2023-02-28T09:05:29;10.48;;;5.90;;
75760;SDS011;64373;46.136;8.830;2023-02-28T09:07:55;9.90;;;5.60;;
75760;SDS011;64373;46.136;8.830;2023-02-28T09:10:21;9.55;;;5.95;;
75760;SDS011;64373;46.136;8.830;2023-02-28T09:12:46;8.82;;;5.15;;
75760;SDS011;64373;46.136;8.830;2023-02-28T09:15:12;9.48;;;4.90;;
75760;SDS011;64373;46.136;8.830;2023-02-28T09:17:37;6.63;;;4.00;;
75760;SDS011;64373;46.136;8.830;2023-02-28T09:20:03;9.52;;;5.60;;
75760;SDS011;64373;46.136;8.830;2023-02-28T09:22:30;8.27;;;4.05;;
75760;SDS011;64373;46.136;8.830;2023-02-28T09:24:55;9.57;;;4.82;;
75760;SDS011;64373;46.136;8.830;2023-02-28T09:27:21;9.27;;;5.70;;
75760;SDS011;64373;46.136;8.830;2023-02-28T09:29:46;10.63;;;5.60;;
75760;SDS011;64373;46.136;8.830;2023-02-28T09:32:12;12.00;;;6.63;;
75760;SDS011;64373;46.136;8.830;2023-02-28T09:34:38;10.63;;;6.38;;
75760;SDS011;64373;46.136;8.830;2023-02-28T09:37:04;8.50;;;4.85;;
75760;SDS011;64373;46.136;8.830;2023-02-28T09:39:29;5.97;;;3.95;;
75760;SDS011;64373;46.136;8.830;2023-02-28T09:41:56;10.85;;;6.18;;
75760;SDS011;64373;46.136;8.830;2023-02-28T09:46:59;11.30;;;6.38;;
75760;SDS011;64373;46.136;8.830;2023-02-28T09:49:34;13.32;;;7.00;;
75760;SDS011;64373;46.136;8.830;2023-02-28T09:52:33;11.45;;;6.43;;
75760;SDS011;64373;46.136;8.830;2023-02-28T09:58:14;11.55;;;6.78;;
75760;SDS011;64373;46.136;8.830;2023-02-28T10:04:04;9.82;;;5.68;;
75760;SDS011;64373;46.136;8.830;2023-02-28T10:06:41;9.43;;;5.28;;
75760;SDS011;64373;46.136;8.830;2023-02-28T10:09:11;9.02;;;4.97;;
75760;SDS011;64373;46.136;8.830;2023-02-28T10:11:39;10.95;;;5.55;;
75760;SDS011;64373;46.136;8.830;2023-02-28T10:19:42;9.85;;;5.78;;
75760;SDS011;64373;46.136;8.830;2023-02-28T10:22:22;9.88;;;5.68;;
75760;SDS011;64373;46.136;8.830;2023-02-28T10:24:52;11.93;;;6.53;;
75760;SDS011;64373;46.136;8.830;2023-02-28T10:27:22;9.68;;;5.35;;
75760;SDS011;64373;46.136;8.830;2023-02-28T10:29:50;9.70;;;5.28;;
75760;SDS011;64373;46.136;8.830;2023-02-28T10:32:22;11.93;;;5.97;;
75760;SDS011;64373;46.136;8.830;2023-02-28T10:37:27;10.55;;;5.65;;
75760;SDS011;64373;46.136;8.830;2023-02-28T10:39:53;8.15;;;4.75;;
75760;SDS011;64373;46.136;8.830;2023-02-28T10:42:19;7.70;;;4.40;;
75760;SDS011;64373;46.136;8.830;2023-02-28T10:44:47;6.72;;;3.95;;
75760;SDS011;64373;46.136;8.830;2023-02-28T10:47:16;7.68;;;4.57;;
75760;SDS011;64373;46.136;8.830;2023-02-28T10:49:49;9.73;;;5.60;;
75760;SDS011;64373;46.136;8.830;2023-02-28T10:52:32;10.60;;;6.10;;
75760;SDS011;64373;46.136;8.830;2023-02-28T10:55:15;12.65;;;6.18;;
75760;SDS011;64373;46.136;8.830;2023-02-28T10:57:47;13.07;;;5.53;;
75760;SDS011;64373;46.136;8.830;2023-02-28T11:02:39;9.73;;;5.75;;
75760;SDS011;64373;46.136;8.830;2023-02-28T11:05:28;7.75;;;4.63;;
75760;SDS011;64373;46.136;8.830;2023-02-28T11:08:12;10.80;;;6.30;;
75760;SDS011;64373;46.136;8.830;2023-02-28T11:10:43;6.80;;;4.22;;
75760;SDS011;64373;46.136;8.830;2023-02-28T11:13:17;7.82;;;4.13;;
75760;SDS011;64373;46.136;8.830;2023-02-28T11:15:49;11.27;;;6.28;;
75760;SDS011;64373;46.136;8.830;2023-02-28T11:18:24;8.82;;;5.63;;
75760;SDS011;64373;46.136;8.830;2023-02-28T11:21:05;12.13;;;5.78;;
75760;SDS011;64373;46.136;8.830;2023-02-28T11:23:32;9.13;;;5.55;;
75760;SDS011;64373;46.136;8.830;2023-02-28T11:26:00;9.75;;;5.75;;
75760;SDS011;64373;46.136;8.830;2023-02-28T11:28:29;10.75;;;4.80;;
75760;SDS011;64373;46.136;8.830;2023-02-28T11:36:49;9.52;;;5.40;;
75760;SDS011;64373;46.136;8.830;2023-02-28T11:39:14;11.85;;;4.97;;
75760;SDS011;64373;46.136;8.830;2023-02-28T11:41:49;12.65;;;7.25;;
75760;SDS011;64373;46.136;8.830;2023-02-28T11:44:34;11.07;;;6.15;;
75760;SDS011;64373;46.136;8.830;2023-02-28T11:49:38;11.55;;;6.90;;
75760;SDS011;64373;46.136;8.830;2023-02-28T12:00:12;12.25;;;5.93;;
75760;SDS011;64373;46.136;8.830;2023-02-28T12:10:29;10.52;;;5.40;;
75760;SDS011;64373;46.136;8.830;2023-02-28T12:23:09;12.35;;;6.05;;
75760;SDS011;64373;46.136;8.830;2023-02-28T12:25:50;9.85;;;4.97;;
75760;SDS011;64373;46.136;8.830;2023-02-28T12:28:22;10.75;;;6.25;;
75760;SDS011;64373;46.136;8.830;2023-02-28T12:30:56;13.50;;;6.80;;
75760;SDS011;64373;46.136;8.830;2023-02-28T12:33:26;12.35;;;6.72;;
75760;SDS011;64373;46.136;8.830;2023-02-28T12:35:54;11.30;;;6.40;;
75760;SDS011;64373;46.136;8.830;2023-02-28T12:38:22;9.30;;;5.63;;
75760;SDS011;64373;46.136;8.830;2023-02-28T12:43:31;7.55;;;4.50;;
75760;SDS011;64373;46.136;8.830;2023-02-28T12:46:08;7.93;;;4.68;;
75760;SDS011;64373;46.136;8.830;2023-02-28T12:48:42;8.07;;;4.63;;
75760;SDS011;64373;46.136;8.830;2023-02-28T12:56:32;9.95;;;5.50;;
75760;SDS011;64373;46.136;8.830;2023-02-28T12:59:03;10.00;;;5.32;;
75760;SDS011;64373;46.136;8.830;2023-02-28T13:09:29;9.75;;;5.88;;
75760;SDS011;64373;46.136;8.830;2023-02-28T13:11:55;9.90;;;5.47;;
75760;SDS011;64373;46.136;8.830;2023-02-28T13:14:23;10.60;;;6.60;;
75760;SDS011;64373;46.136;8.830;2023-02-28T13:19:45;7.90;;;4.85;;
75760;SDS011;64373;46.136;8.830;2023-02-28T13:22:37;9.43;;;4.97;;
75760;SDS011;64373;46.136;8.830;2023-02-28T13:27:59;11.57;;;7.03;;
75760;SDS011;64373;46.136;8.830;2023-02-28T13:35:45;11.50;;;6.70;;
75760;SDS011;64373;46.136;8.830;2023-02-28T13:52:14;12.93;;;7.78;;
75760;SDS011;64373;46.136;8.830;2023-02-28T14:08:55;8.32;;;4.82;;
75760;SDS011;64373;46.136;8.830;2023-02-28T14:11:29;5.93;;;3.42;;
75760;SDS011;64373;46.136;8.830;2023-02-28T14:13:59;5.63;;;3.35;;
75760;SDS011;64373;46.136;8.830;2023-02-28T14:16:35;7.75;;;4.40;;
75760;SDS011;64373;46.136;8.830;2023-02-28T14:19:10;5.65;;;3.55;;
75760;SDS011;64373;46.136;8.830;2023-02-28T14:21:39;4.68;;;3.13;;
75760;SDS011;64373;46.136;8.830;2023-02-28T14:24:24;4.63;;;2.83;;
75760;SDS011;64373;46.136;8.830;2023-02-28T14:30:07;13.75;;;5.95;;
75760;SDS011;64373;46.136;8.830;2023-02-28T14:32:47;7.30;;;4.65;;
75760;SDS011;64373;46.136;8.830;2023-02-28T14:37:57;7.03;;;3.60;;
75760;SDS011;64373;46.136;8.830;2023-02-28T14:40:28;7.90;;;5.03;;
75760;SDS011;64373;46.136;8.830;2023-02-28T14:42:59;6.38;;;3.67;;
75760;SDS011;64373;46.136;8.830;2023-02-28T14:45:30;9.27;;;4.50;;
75760;SDS011;64373;46.136;8.830;2023-02-28T14:47:58;5.63;;;3.67;;
75760;SDS011;64373;46.136;8.830;2023-02-28T14:50:30;6.45;;;3.47;;
75760;SDS011;64373;46.136;8.830;2023-02-28T14:52:58;5.22;;;3.33;;
75760;SDS011;64373;46.136;8.830;2023-02-28T14:55:36;6.95;;;4.35;;
75760;SDS011;64373;46.136;8.830;2023-02-28T14:58:03;8.57;;;4.88;;
75760;SDS011;64373;46.136;8.830;2023-02-28T15:00:34;7.93;;;4.22;;
75760;SDS011;64373;46.136;8.830;2023-02-28T15:03:19;10.60;;;5.25;;
75760;SDS011;64373;46.136;8.830;2023-02-28T15:05:56;9.13;;;5.32;;
75760;SDS011;64373;46.136;8.830;2023-02-28T15:13:21;5.72;;;3.33;;
75760;SDS011;64373;46.136;8.830;2023-02-28T15:15:55;6.18;;;3.10;;
75760;SDS011;64373;46.136;8.830;2023-02-28T15:18:33;4.32;;;2.67;;
75760;SDS011;64373;46.136;8.830;2023-02-28T15:21:10;5.43;;;2.72;;
75760;SDS011;64373;46.136;8.830;2023-02-28T15:26:03;6.35;;;3.75;;
75760;SDS011;64373;46.136;8.830;2023-02-28T15:28:29;4.70;;;2.80;;
75760;SDS011;64373;46.136;8.830;2023-02-28T15:30:59;4.55;;;2.42;;
75760;SDS011;64373;46.136;8.830;2023-02-28T15:36:03;4.10;;;2.10;;
75760;SDS011;64373;46.136;8.830;2023-02-28T15:38:36;4.55;;;2.40;;
75760;SDS011;64373;46.136;8.830;2023-02-28T15:41:01;8.50;;;4.78;;
75760;SDS011;64373;46.136;8.830;2023-02-28T15:43:35;7.45;;;4.65;;
75760;SDS011;64373;46.136;8.830;2023-02-28T15:46:08;9.13;;;5.63;;
75760;SDS011;64373;46.136;8.830;2023-02-28T15:51:09;10.70;;;6.50;;
75760;SDS011;64373;46.136;8.830;2023-02-28T15:53:59;9.38;;;6.10;;
75760;SDS011;64373;46.136;8.830;2023-02-28T15:56:27;10.00;;;6.05;;
75760;SDS011;64373;46.136;8.830;2023-02-28T15:59:01;12.90;;;6.53;;
75760;SDS011;64373;46.136;8.830;2023-02-28T16:01:32;9.02;;;5.25;;
75760;SDS011;64373;46.136;8.830;2023-02-28T16:04:04;7.35;;;4.28;;
75760;SDS011;64373;46.136;8.830;2023-02-28T16:06:45;5.18;;;3.03;;
75760;SDS011;64373;46.136;8.830;2023-02-28T16:09:12;6.00;;;3.35;;
75760;SDS011;64373;46.136;8.830;2023-02-28T16:12:24;4.30;;;2.20;;
75760;SDS011;64373;46.136;8.830;2023-02-28T16:14:29;5.78;;;3.40;;
75760;SDS011;64373;46.136;8.830;2023-02-28T16:17:05;7.53;;;3.53;;
75760;SDS011;64373;46.136;8.830;2023-02-28T16:19:34;5.25;;;2.90;;
75760;SDS011;64373;46.136;8.830;2023-02-28T16:21:59;4.28;;;2.70;;
75760;SDS011;64373;46.136;8.830;2023-02-28T16:24:25;4.22;;;2.47;;
75760;SDS011;64373;46.136;8.830;2023-02-28T16:26:51;3.80;;;2.78;;
75760;SDS011;64373;46.136;8.830;2023-02-28T16:29:28;5.03;;;2.90;;
75760;SDS011;64373;46.136;8.830;2023-02-28T16:31:56;4.85;;;2.90;;
75760;SDS011;64373;46.136;8.830;2023-02-28T16:34:22;5.80;;;3.25;;
75760;SDS011;64373;46.136;8.830;2023-02-28T16:36:48;6.63;;;3.63;;
75760;SDS011;64373;46.136;8.830;2023-02-28T16:39:14;7.32;;;4.45;;
75760;SDS011;64373;46.136;8.830;2023-02-28T16:41:44;4.97;;;2.80;;
75760;SDS011;64373;46.136;8.830;2023-02-28T16:44:12;4.75;;;2.80;;
75760;SDS011;64373;46.136;8.830;2023-02-28T16:46:39;6.93;;;3.92;;
75760;SDS011;64373;46.136;8.830;2023-02-28T16:49:07;5.32;;;3.20;;
75760;SDS011;64373;46.136;8.830;2023-02-28T16:51:36;4.45;;;2.45;;
75760;SDS011;64373;46.136;8.830;2023-02-28T16:54:01;4.28;;;2.75;;
75760;SDS011;64373;46.136;8.830;2023-02-28T16:56:27;3.60;;;2.38;;
75760;SDS011;64373;46.136;8.830;2023-02-28T16:58:53;4.13;;;2.42;;
75760;SDS011;64373;46.136;8.830;2023-02-28T17:01:22;3.40;;;2.20;;
75760;SDS011;64373;46.136;8.830;2023-02-28T17:03:48;4.97;;;2.45;;
75760;SDS011;64373;46.136;8.830;2023-02-28T17:06:16;5.20;;;2.70;;
75760;SDS011;64373;46.136;8.830;2023-02-28T17:08:45;4.85;;;2.90;;
75760;SDS011;64373;46.136;8.830;2023-02-28T17:11:11;5.15;;;2.75;;
75760;SDS011;64373;46.136;8.830;2023-02-28T17:13:36;3.88;;;2.10;;
75760;SDS011;64373;46.136;8.830;2023-02-28T17:16:02;4.05;;;2.10;;
75760;SDS011;64373;46.136;8.830;2023-02-28T17:18:28;3.75;;;2.45;;
75760;SDS011;64373;46.136;8.830;2023-02-28T17:20:59;4.30;;;2.53;;
75760;SDS011;64373;46.136;8.830;2023-02-28T17:23:25;4.90;;;2.30;;
75760;SDS011;64373;46.136;8.830;2023-02-28T17:25:50;6.50;;;3.67;;
75760;SDS011;64373;46.136;8.830;2023-02-28T17:28:22;5.65;;;3.10;;
75760;SDS011;64373;46.136;8.830;2023-02-28T17:30:48;5.07;;;2.83;;
75760;SDS011;64373;46.136;8.830;2023-02-28T17:33:14;5.90;;;3.45;;
75760;SDS011;64373;46.136;8.830;2023-02-28T17:35:40;4.78;;;3.05;;
75760;SDS011;64373;46.136;8.830;2023-02-28T17:38:11;4.47;;;2.70;;
75760;SDS011;64373;46.136;8.830;2023-02-28T17:40:40;4.97;;;2.35;;
75760;SDS011;64373;46.136;8.830;2023-02-28T17:43:06;3.33;;;2.22;;
75760;SDS011;64373;46.136;8.830;2023-02-28T17:45:31;4.15;;;2.33;;
75760;SDS011;64373;46.136;8.830;2023-02-28T17:47:59;4.10;;;2.15;;
75760;SDS011;64373;46.136;8.830;2023-02-28T17:50:25;4.05;;;2.35;;
75760;SDS011;64373;46.136;8.830;2023-02-28T17:52:51;5.75;;;3.00;;
75760;SDS011;64373;46.136;8.830;2023-02-28T17:55:16;4.88;;;2.60;;
75760;SDS011;64373;46.136;8.830;2023-02-28T17:57:44;5.15;;;2.70;;
75760;SDS011;64373;46.136;8.830;2023-02-28T18:00:13;7.40;;;3.40;;
75760;SDS011;64373;46.136;8.830;2023-02-28T18:02:41;6.05;;;3.40;;
75760;SDS011;64373;46.136;8.830;2023-02-28T18:05:07;6.43;;;3.33;;
75760;SDS011;64373;46.136;8.830;2023-02-28T18:07:33;5.13;;;2.90;;
75760;SDS011;64373;46.136;8.830;2023-02-28T18:09:59;5.75;;;3.58;;
75760;SDS011;64373;46.136;8.830;2023-02-28T18:12:25;5.55;;;3.45;;